sensor_id;sensor_type;location;lat;lon;timestamp;pressure;altitude;pressure_sealevel;temperature;humidity
35676;BME280;21790;42.668;23.298;2024-01-06T00:00:32;94516.69;;;13.47;45.75
35676;BME280;21790;42.668;23.298;2024-01-06T00:02:57;94525.00;;;13.47;45.60
35676;BME280;21790;42.668;23.298;2024-01-06T00:05:23;94520.63;;;13.40;45.57
35676;BME280;21790;42.668;23.298;2024-01-06T00:07:48;94512.53;;;13.57;45.28
35676;BME280;21790;42.668;23.298;2024-01-06T00:10:14;94494.19;;;13.65;44.82
35676;BME280;21790;42.668;23.298;2024-01-06T00:12:40;94501.97;;;13.61;44.90
35676;BME280;21790;42.668;23.298;2024-01-06T00:15:06;94502.47;;;13.79;44.65
35676;BME280;21790;42.668;23.298;2024-01-06T00:17:33;94518.22;;;13.68;44.82
35676;BME280;21790;42.668;23.298;2024-01-06T00:20:00;94520.31;;;13.53;45.18
35676;BME280;21790;42.668;23.298;2024-01-06T00:22:27;94520.56;;;13.55;45.14
35676;BME280;21790;42.668;23.298;2024-01-06T00:24:53;94519.78;;;13.54;45.12
35676;BME280;21790;42.668;23.298;2024-01-06T00:27:18;94516.91;;;13.63;44.99
35676;BME280;21790;42.668;23.298;2024-01-06T00:29:44;94513.22;;;13.72;44.70
35676;BME280;21790;42.668;23.298;2024-01-06T00:32:09;94531.25;;;13.62;45.17
35676;BME280;21790;42.668;23.298;2024-01-06T00:34:35;94538.59;;;13.45;45.42
35676;BME280;21790;42.668;23.298;2024-01-06T00:37:00;94531.59;;;13.49;45.33
35676;BME280;21790;42.668;23.298;2024-01-06T00:39:26;94522.66;;;13.60;45.29
35676;BME280;21790;42.668;23.298;2024-01-06T00:41:51;94530.97;;;13.60;45.48
35676;BME280;21790;42.668;23.298;2024-01-06T00:44:16;94525.50;;;13.45;45.67
35676;BME280;21790;42.668;23.298;2024-01-06T00:46:42;94523.25;;;13.29;46.29
35676;BME280;21790;42.668;23.298;2024-01-06T00:49:07;94510.00;;;13.38;46.00
35676;BME280;21790;42.668;23.298;2024-01-06T00:51:32;94495.91;;;13.42;45.63
35676;BME280;21790;42.668;23.298;2024-01-06T00:53:58;94508.53;;;13.43;45.51
35676;BME280;21790;42.668;23.298;2024-01-06T00:56:23;94524.84;;;13.35;45.92
35676;BME280;21790;42.668;23.298;2024-01-06T00:58:49;94504.38;;;13.33;45.76
35676;BME280;21790;42.668;23.298;2024-01-06T01:01:14;94510.69;;;13.33;45.91
35676;BME280;21790;42.668;23.298;2024-01-06T01:03:40;94519.25;;;13.15;46.30
35676;BME280;21790;42.668;23.298;2024-01-06T01:06:05;94510.63;;;13.28;46.09
35676;BME280;21790;42.668;23.298;2024-01-06T01:08:31;94519.03;;;13.33;46.03
35676;BME280;21790;42.668;23.298;2024-01-06T01:10:57;94522.19;;;13.26;46.19
35676;BME280;21790;42.668;23.298;2024-01-06T01:13:23;94508.44;;;13.17;46.48
35676;BME280;21790;42.668;23.298;2024-01-06T01:15:48;94507.06;;;13.27;46.22
35676;BME280;21790;42.668;23.298;2024-01-06T01:18:13;94510.66;;;13.13;46.24
35676;BME280;21790;42.668;23.298;2024-01-06T01:20:39;94501.53;;;13.27;45.96
35676;BME280;21790;42.668;23.298;2024-01-06T01:23:06;94502.59;;;13.15;46.10
35676;BME280;21790;42.668;23.298;2024-01-06T01:25:32;94500.34;;;13.34;45.69
35676;BME280;21790;42.668;23.298;2024-01-06T01:27:57;94504.94;;;13.37;45.01
35676;BME280;21790;42.668;23.298;2024-01-06T01:30:22;94494.34;;;13.35;45.04
35676;BME280;21790;42.668;23.298;2024-01-06T01:32:48;94502.59;;;13.50;44.84
35676;BME280;21790;42.668;23.298;2024-01-06T01:35:13;94490.28;;;13.36;45.23
35676;BME280;21790;42.668;23.298;2024-01-06T01:37:39;94489.59;;;13.21;45.48
35676;BME280;21790;42.668;23.298;2024-01-06T01:40:04;94489.09;;;13.23;45.44
35676;BME280;21790;42.668;23.298;2024-01-06T01:42:30;94487.22;;;12.99;45.94
35676;BME280;21790;42.668;23.298;2024-01-06T01:44:56;94478.75;;;12.88;46.22
35676;BME280;21790;42.668;23.298;2024-01-06T01:47:21;94481.56;;;13.09;46.04
35676;BME280;21790;42.668;23.298;2024-01-06T01:49:46;94477.94;;;13.17;45.61
35676;BME280;21790;42.668;23.298;2024-01-06T01:52:12;94469.59;;;13.17;45.14
35676;BME280;21790;42.668;23.298;2024-01-06T01:54:38;94476.75;;;13.09;45.28
35676;BME280;21790;42.668;23.298;2024-01-06T01:57:04;94465.88;;;13.06;45.59
35676;BME280;21790;42.668;23.298;2024-01-06T01:59:29;94469.91;;;13.05;45.60
35676;BME280;21790;42.668;23.298;2024-01-06T02:01:56;94465.78;;;13.15;45.52
35676;BME280;21790;42.668;23.298;2024-01-06T02:04:21;94462.94;;;12.94;45.82
35676;BME280;21790;42.668;23.298;2024-01-06T02:06:47;94456.22;;;12.81;46.25
35676;BME280;21790;42.668;23.298;2024-01-06T02:09:13;94456.97;;;12.81;46.31
35676;BME280;21790;42.668;23.298;2024-01-06T02:11:39;94452.75;;;12.71;46.46
35676;BME280;21790;42.668;23.298;2024-01-06T02:14:04;94440.22;;;12.90;45.89
35676;BME280;21790;42.668;23.298;2024-01-06T02:16:30;94442.69;;;12.88;46.14
35676;BME280;21790;42.668;23.298;2024-01-06T02:18:55;94434.88;;;12.72;46.50
35676;BME280;21790;42.668;23.298;2024-01-06T02:21:23;94447.47;;;12.88;46.51
35676;BME280;21790;42.668;23.298;2024-01-06T02:23:49;94440.69;;;12.54;47.25
35676;BME280;21790;42.668;23.298;2024-01-06T02:26:16;94423.16;;;12.63;47.19
35676;BME280;21790;42.668;23.298;2024-01-06T02:28:41;94425.09;;;12.91;46.31
35676;BME280;21790;42.668;23.298;2024-01-06T02:31:10;94413.56;;;12.78;46.72
35676;BME280;21790;42.668;23.298;2024-01-06T02:33:35;94404.16;;;12.90;46.64
35676;BME280;21790;42.668;23.298;2024-01-06T02:36:02;94426.63;;;12.92;46.57
35676;BME280;21790;42.668;23.298;2024-01-06T02:38:27;94419.88;;;12.99;46.67
35676;BME280;21790;42.668;23.298;2024-01-06T02:40:53;94406.63;;;12.88;46.43
35676;BME280;21790;42.668;23.298;2024-01-06T02:43:18;94405.41;;;12.89;46.57
35676;BME280;21790;42.668;23.298;2024-01-06T02:45:44;94418.66;;;13.00;46.16
35676;BME280;21790;42.668;23.298;2024-01-06T02:48:09;94413.72;;;13.10;45.59
35676;BME280;21790;42.668;23.298;2024-01-06T02:50:35;94420.28;;;13.27;45.23
35676;BME280;21790;42.668;23.298;2024-01-06T02:53:00;94409.72;;;13.11;45.80
35676;BME280;21790;42.668;23.298;2024-01-06T02:55:26;94396.28;;;13.04;45.55
35676;BME280;21790;42.668;23.298;2024-01-06T02:57:52;94390.28;;;13.25;45.37
35676;BME280;21790;42.668;23.298;2024-01-06T03:00:19;94384.03;;;13.30;44.88
35676;BME280;21790;42.668;23.298;2024-01-06T03:02:46;94379.28;;;13.36;44.67
35676;BME280;21790;42.668;23.298;2024-01-06T03:05:13;94388.03;;;13.29;44.88
35676;BME280;21790;42.668;23.298;2024-01-06T03:07:44;94388.59;;;13.33;44.62
35676;BME280;21790;42.668;23.298;2024-01-06T03:10:12;94385.91;;;13.19;45.04
35676;BME280;21790;42.668;23.298;2024-01-06T03:12:39;94378.28;;;13.14;45.28
35676;BME280;21790;42.668;23.298;2024-01-06T03:15:06;94382.94;;;13.08;45.10
35676;BME280;21790;42.668;23.298;2024-01-06T03:17:32;94383.06;;;13.13;44.86
35676;BME280;21790;42.668;23.298;2024-01-06T03:19:59;94377.75;;;13.15;44.75
35676;BME280;21790;42.668;23.298;2024-01-06T03:22:25;94377.13;;;13.06;45.07
35676;BME280;21790;42.668;23.298;2024-01-06T03:24:51;94386.66;;;12.84;45.78
35676;BME280;21790;42.668;23.298;2024-01-06T03:27:16;94375.19;;;12.91;45.79
35676;BME280;21790;42.668;23.298;2024-01-06T03:29:42;94388.44;;;12.67;46.33
35676;BME280;21790;42.668;23.298;2024-01-06T03:32:07;94385.81;;;12.58;46.38
35676;BME280;21790;42.668;23.298;2024-01-06T03:34:33;94384.91;;;12.67;45.95
35676;BME280;21790;42.668;23.298;2024-01-06T03:36:58;94378.88;;;12.68;46.20
35676;BME280;21790;42.668;23.298;2024-01-06T03:39:24;94367.41;;;12.75;45.87
35676;BME280;21790;42.668;23.298;2024-01-06T03:41:49;94346.16;;;12.72;45.81
35676;BME280;21790;42.668;23.298;2024-01-06T03:44:15;94363.09;;;12.94;45.33
35676;BME280;21790;42.668;23.298;2024-01-06T03:46:40;94372.66;;;12.93;45.36
35676;BME280;21790;42.668;23.298;2024-01-06T03:49:06;94365.72;;;12.83;45.33
35676;BME280;21790;42.668;23.298;2024-01-06T03:51:35;94377.13;;;13.06;45.44
35676;BME280;21790;42.668;23.298;2024-01-06T03:54:01;94366.50;;;12.84;45.68
35676;BME280;21790;42.668;23.298;2024-01-06T03:56:26;94374.97;;;12.95;45.05
35676;BME280;21790;42.668;23.298;2024-01-06T03:58:54;94373.66;;;12.90;45.55
35676;BME280;21790;42.668;23.298;2024-01-06T04:01:20;94374.25;;;12.80;45.58
35676;BME280;21790;42.668;23.298;2024-01-06T04:03:46;94371.13;;;12.72;45.90
35676;BME280;21790;42.668;23.298;2024-01-06T04:06:12;94365.47;;;12.46;46.05
35676;BME280;21790;42.668;23.298;2024-01-06T04:08:39;94366.75;;;12.66;45.62
35676;BME280;21790;42.668;23.298;2024-01-06T04:11:05;94369.34;;;12.69;45.49
35676;BME280;21790;42.668;23.298;2024-01-06T04:13:31;94366.41;;;12.58;45.75
35676;BME280;21790;42.668;23.298;2024-01-06T04:15:56;94367.94;;;12.59;45.93
35676;BME280;21790;42.668;23.298;2024-01-06T04:18:22;94368.25;;;12.81;45.09
35676;BME280;21790;42.668;23.298;2024-01-06T04:20:47;94357.41;;;12.63;45.29
35676;BME280;21790;42.668;23.298;2024-01-06T04:23:13;94357.63;;;12.80;44.71
35676;BME280;21790;42.668;23.298;2024-01-06T04:25:38;94368.97;;;12.62;45.73
35676;BME280;21790;42.668;23.298;2024-01-06T04:28:04;94367.47;;;12.46;45.96
35676;BME280;21790;42.668;23.298;2024-01-06T04:30:29;94356.59;;;12.42;45.81
35676;BME280;21790;42.668;23.298;2024-01-06T04:32:55;94376.09;;;12.48;45.93
35676;BME280;21790;42.668;23.298;2024-01-06T04:35:22;94378.28;;;12.44;46.21
35676;BME280;21790;42.668;23.298;2024-01-06T04:37:48;94387.34;;;12.44;46.25
35676;BME280;21790;42.668;23.298;2024-01-06T04:40:14;94390.03;;;12.39;46.20
35676;BME280;21790;42.668;23.298;2024-01-06T04:42:40;94363.59;;;12.38;46.10
35676;BME280;21790;42.668;23.298;2024-01-06T04:45:06;94387.03;;;12.57;45.90
35676;BME280;21790;42.668;23.298;2024-01-06T04:47:33;94365.19;;;12.44;45.80
35676;BME280;21790;42.668;23.298;2024-01-06T04:49:59;94392.13;;;12.58;45.64
35676;BME280;21790;42.668;23.298;2024-01-06T04:52:24;94388.56;;;12.58;45.95
35676;BME280;21790;42.668;23.298;2024-01-06T04:54:51;94388.91;;;12.66;45.55
35676;BME280;21790;42.668;23.298;2024-01-06T04:57:17;94408.06;;;11.99;47.17
35676;BME280;21790;42.668;23.298;2024-01-06T04:59:43;94383.34;;;12.45;46.25
35676;BME280;21790;42.668;23.298;2024-01-06T05:02:10;94396.94;;;12.43;46.44
35676;BME280;21790;42.668;23.298;2024-01-06T05:04:35;94383.50;;;12.07;47.04
35676;BME280;21790;42.668;23.298;2024-01-06T05:07:01;94374.38;;;12.36;46.36
35676;BME280;21790;42.668;23.298;2024-01-06T05:09:27;94375.34;;;12.33;46.71
35676;BME280;21790;42.668;23.298;2024-01-06T05:11:52;94364.53;;;12.35;46.22
35676;BME280;21790;42.668;23.298;2024-01-06T05:14:18;94368.38;;;12.37;46.71
35676;BME280;21790;42.668;23.298;2024-01-06T05:16:43;94344.00;;;12.41;45.99
35676;BME280;21790;42.668;23.298;2024-01-06T05:19:09;94381.22;;;12.55;45.64
35676;BME280;21790;42.668;23.298;2024-01-06T05:21:34;94359.53;;;12.53;45.78
35676;BME280;21790;42.668;23.298;2024-01-06T05:24:01;94355.72;;;12.71;45.20
35676;BME280;21790;42.668;23.298;2024-01-06T05:26:26;94345.69;;;12.39;45.90
35676;BME280;21790;42.668;23.298;2024-01-06T05:28:52;94338.81;;;12.49;45.50
35676;BME280;21790;42.668;23.298;2024-01-06T05:31:18;94358.72;;;12.33;46.04
35676;BME280;21790;42.668;23.298;2024-01-06T05:33:44;94343.44;;;12.37;45.98
35676;BME280;21790;42.668;23.298;2024-01-06T05:36:09;94343.34;;;12.32;45.76
35676;BME280;21790;42.668;23.298;2024-01-06T05:38:38;94330.22;;;12.47;45.56
35676;BME280;21790;42.668;23.298;2024-01-06T05:41:04;94345.69;;;12.39;45.76
35676;BME280;21790;42.668;23.298;2024-01-06T05:43:29;94347.47;;;12.22;46.20
35676;BME280;21790;42.668;23.298;2024-01-06T05:45:57;94356.34;;;12.11;46.83
35676;BME280;21790;42.668;23.298;2024-01-06T05:48:23;94342.84;;;12.33;46.27
35676;BME280;21790;42.668;23.298;2024-01-06T05:50:50;94341.69;;;12.40;45.77
35676;BME280;21790;42.668;23.298;2024-01-06T05:53:15;94342.06;;;12.47;45.57
35676;BME280;21790;42.668;23.298;2024-01-06T05:55:44;94342.06;;;12.47;45.81
35676;BME280;21790;42.668;23.298;2024-01-06T05:58:09;94338.69;;;12.58;45.13
35676;BME280;21790;42.668;23.298;2024-01-06T06:00:35;94340.84;;;12.69;44.78
35676;BME280;21790;42.668;23.298;2024-01-06T06:03:00;94343.81;;;12.65;44.88
35676;BME280;21790;42.668;23.298;2024-01-06T06:05:25;94349.22;;;12.54;45.36
35676;BME280;21790;42.668;23.298;2024-01-06T06:07:51;94343.91;;;12.36;45.45
35676;BME280;21790;42.668;23.298;2024-01-06T06:10:17;94338.91;;;12.40;45.35
35676;BME280;21790;42.668;23.298;2024-01-06T06:12:44;94339.56;;;12.49;45.38
35676;BME280;21790;42.668;23.298;2024-01-06T06:15:10;94346.50;;;12.25;46.18
35676;BME280;21790;42.668;23.298;2024-01-06T06:17:36;94332.19;;;12.26;45.91
35676;BME280;21790;42.668;23.298;2024-01-06T06:20:02;94341.06;;;12.30;45.88
35676;BME280;21790;42.668;23.298;2024-01-06T06:22:28;94335.97;;;12.43;45.48
35676;BME280;21790;42.668;23.298;2024-01-06T06:24:59;94343.34;;;12.32;45.83
35676;BME280;21790;42.668;23.298;2024-01-06T06:27:25;94338.50;;;12.27;45.76
35676;BME280;21790;42.668;23.298;2024-01-06T06:29:52;94355.38;;;12.43;45.33
35676;BME280;21790;42.668;23.298;2024-01-06T06:32:17;94347.28;;;12.25;45.87
35676;BME280;21790;42.668;23.298;2024-01-06T06:34:43;94338.50;;;12.27;45.60
35676;BME280;21790;42.668;23.298;2024-01-06T06:37:08;94346.28;;;12.28;46.04
35676;BME280;21790;42.668;23.298;2024-01-06T06:39:34;94354.44;;;12.32;46.08
35676;BME280;21790;42.668;23.298;2024-01-06T06:42:01;94350.84;;;12.46;45.67
35676;BME280;21790;42.668;23.298;2024-01-06T06:44:27;94347.72;;;12.38;45.55
35676;BME280;21790;42.668;23.298;2024-01-06T06:46:52;94357.19;;;12.32;45.85
35676;BME280;21790;42.668;23.298;2024-01-06T06:49:18;94359.75;;;12.35;45.65
35676;BME280;21790;42.668;23.298;2024-01-06T06:51:43;94347.41;;;12.51;44.79
35676;BME280;21790;42.668;23.298;2024-01-06T06:54:14;94345.34;;;12.66;44.44
35676;BME280;21790;42.668;23.298;2024-01-06T06:56:41;94358.94;;;12.49;45.06
35676;BME280;21790;42.668;23.298;2024-01-06T06:59:06;94331.94;;;12.44;45.00
35676;BME280;21790;42.668;23.298;2024-01-06T07:01:32;94342.63;;;12.51;44.95
35676;BME280;21790;42.668;23.298;2024-01-06T07:03:57;94364.63;;;11.38;47.69
35676;BME280;21790;42.668;23.298;2024-01-06T07:06:23;94328.78;;;11.72;46.69
35676;BME280;21790;42.668;23.298;2024-01-06T07:08:48;94341.34;;;12.18;45.98
35676;BME280;21790;42.668;23.298;2024-01-06T07:11:14;94352.84;;;11.81;46.56
35676;BME280;21790;42.668;23.298;2024-01-06T07:13:43;94335.81;;;12.18;46.05
35676;BME280;21790;42.668;23.298;2024-01-06T07:16:08;94358.56;;;12.22;45.99
35676;BME280;21790;42.668;23.298;2024-01-06T07:18:34;94339.09;;;12.01;46.50
35676;BME280;21790;42.668;23.298;2024-01-06T07:21:00;94345.66;;;12.19;46.50
35676;BME280;21790;42.668;23.298;2024-01-06T07:23:25;94347.56;;;12.27;45.75
35676;BME280;21790;42.668;23.298;2024-01-06T07:25:51;94339.38;;;12.38;45.82
35676;BME280;21790;42.668;23.298;2024-01-06T07:28:16;94348.16;;;12.51;46.02
35676;BME280;21790;42.668;23.298;2024-01-06T07:30:42;94346.00;;;13.16;54.54
35676;BME280;21790;42.668;23.298;2024-01-06T07:33:07;94326.59;;;13.42;45.62
35676;BME280;21790;42.668;23.298;2024-01-06T07:35:33;94330.91;;;13.43;43.93
35676;BME280;21790;42.668;23.298;2024-01-06T07:37:59;94322.69;;;13.54;43.69
35676;BME280;21790;42.668;23.298;2024-01-06T07:40:25;94333.19;;;13.45;43.12
35676;BME280;21790;42.668;23.298;2024-01-06T07:42:50;94340.78;;;12.83;44.28
35676;BME280;21790;42.668;23.298;2024-01-06T07:45:17;94316.50;;;12.98;43.84
35676;BME280;21790;42.668;23.298;2024-01-06T07:47:42;94337.03;;;13.07;44.01
35676;BME280;21790;42.668;23.298;2024-01-06T07:50:09;94339.81;;;13.07;44.25
35676;BME280;21790;42.668;23.298;2024-01-06T07:52:34;94335.78;;;13.28;43.42
35676;BME280;21790;42.668;23.298;2024-01-06T07:55:00;94338.34;;;13.11;44.06
35676;BME280;21790;42.668;23.298;2024-01-06T07:57:25;94336.09;;;13.30;43.53
35676;BME280;21790;42.668;23.298;2024-01-06T07:59:51;94329.81;;;13.35;43.22
35676;BME280;21790;42.668;23.298;2024-01-06T08:02:16;94329.22;;;13.25;43.21
35676;BME280;21790;42.668;23.298;2024-01-06T08:04:42;94325.03;;;13.35;43.15
35676;BME280;21790;42.668;23.298;2024-01-06T08:07:15;94320.25;;;13.62;42.96
35676;BME280;21790;42.668;23.298;2024-01-06T08:09:54;94329.88;;;13.66;42.83
35676;BME280;21790;42.668;23.298;2024-01-06T08:12:24;94330.81;;;13.83;42.70
35676;BME280;21790;42.668;23.298;2024-01-06T08:14:51;94331.03;;;13.80;42.47
35676;BME280;21790;42.668;23.298;2024-01-06T08:17:19;94332.88;;;13.89;42.38
35676;BME280;21790;42.668;23.298;2024-01-06T08:19:55;94324.41;;;14.03;41.86
35676;BME280;21790;42.668;23.298;2024-01-06T08:22:25;94328.13;;;13.95;41.90
35676;BME280;21790;42.668;23.298;2024-01-06T08:24:54;94322.09;;;13.70;42.63
35676;BME280;21790;42.668;23.298;2024-01-06T08:27:23;94319.94;;;13.80;42.26
35676;BME280;21790;42.668;23.298;2024-01-06T08:34:09;94325.69;;;14.08;42.17
35676;BME280;21790;42.668;23.298;2024-01-06T08:36:45;94340.59;;;14.05;42.29
35676;BME280;21790;42.668;23.298;2024-01-06T08:39:24;94330.69;;;14.35;42.06
35676;BME280;21790;42.668;23.298;2024-01-06T08:44:59;94340.47;;;14.25;42.19
35676;BME280;21790;42.668;23.298;2024-01-06T08:47:36;94337.66;;;13.88;42.99
35676;BME280;21790;42.668;23.298;2024-01-06T08:50:36;94330.09;;;14.20;41.96
35676;BME280;21790;42.668;23.298;2024-01-06T08:53:29;94320.06;;;14.28;41.82
35676;BME280;21790;42.668;23.298;2024-01-06T08:55:59;94326.97;;;14.38;41.34
35676;BME280;21790;42.668;23.298;2024-01-06T08:58:25;94327.22;;;14.40;41.13
35676;BME280;21790;42.668;23.298;2024-01-06T09:00:53;94315.97;;;14.55;40.67
35676;BME280;21790;42.668;23.298;2024-01-06T09:03:46;94325.16;;;14.72;40.90
35676;BME280;21790;42.668;23.298;2024-01-06T09:06:15;94318.22;;;14.56;41.50
35676;BME280;21790;42.668;23.298;2024-01-06T09:08:51;94307.28;;;14.90;41.04
35676;BME280;21790;42.668;23.298;2024-01-06T09:11:22;94312.66;;;14.56;41.66
35676;BME280;21790;42.668;23.298;2024-01-06T09:13:53;94286.34;;;14.94;41.10
35676;BME280;21790;42.668;23.298;2024-01-06T09:16:23;94286.56;;;14.91;40.55
35676;BME280;21790;42.668;23.298;2024-01-06T09:18:52;94288.84;;;14.92;40.96
35676;BME280;21790;42.668;23.298;2024-01-06T09:21:33;94302.28;;;14.99;40.54
35676;BME280;21790;42.668;23.298;2024-01-06T09:24:02;94279.13;;;14.71;41.19
35676;BME280;21790;42.668;23.298;2024-01-06T09:26:35;94268.72;;;14.60;41.29
35676;BME280;21790;42.668;23.298;2024-01-06T09:29:02;94284.09;;;14.19;42.28
35676;BME280;21790;42.668;23.298;2024-01-06T09:31:28;94276.06;;;14.63;41.63
35676;BME280;21790;42.668;23.298;2024-01-06T09:33:55;94272.63;;;14.85;41.40
35676;BME280;21790;42.668;23.298;2024-01-06T09:36:21;94255.97;;;14.96;41.15
35676;BME280;21790;42.668;23.298;2024-01-06T09:38:47;94251.94;;;15.03;40.86
35676;BME280;21790;42.668;23.298;2024-01-06T09:41:12;94260.03;;;15.06;41.29
35676;BME280;21790;42.668;23.298;2024-01-06T09:43:38;94259.56;;;15.14;41.10
35676;BME280;21790;42.668;23.298;2024-01-06T09:48:54;94257.50;;;14.97;41.19
35676;BME280;21790;42.668;23.298;2024-01-06T09:51:23;94245.34;;;14.95;41.32
35676;BME280;21790;42.668;23.298;2024-01-06T09:56:26;94210.47;;;14.99;41.10
35676;BME280;21790;42.668;23.298;2024-01-06T09:58:52;94229.47;;;15.18;40.99
35676;BME280;21790;42.668;23.298;2024-01-06T10:01:18;94232.53;;;15.25;40.75
35676;BME280;21790;42.668;23.298;2024-01-06T10:03:44;94220.16;;;15.37;40.29
35676;BME280;21790;42.668;23.298;2024-01-06T10:06:17;94215.84;;;15.47;40.08
35676;BME280;21790;42.668;23.298;2024-01-06T10:08:52;94208.50;;;15.50;39.97
35676;BME280;21790;42.668;23.298;2024-01-06T10:11:24;94206.75;;;15.41;40.29
35676;BME280;21790;42.668;23.298;2024-01-06T10:13:51;94204.72;;;15.36;40.46
35676;BME280;21790;42.668;23.298;2024-01-06T10:16:21;94192.06;;;15.46;40.70
35676;BME280;21790;42.668;23.298;2024-01-06T10:18:48;94185.22;;;15.36;40.28
35676;BME280;21790;42.668;23.298;2024-01-06T10:21:15;94200.13;;;15.33;40.63
35676;BME280;21790;42.668;23.298;2024-01-06T10:23:43;94193.06;;;15.38;40.58
35676;BME280;21790;42.668;23.298;2024-01-06T10:26:17;94194.38;;;15.54;40.39
35676;BME280;21790;42.668;23.298;2024-01-06T10:28:48;94172.59;;;15.52;40.27
35676;BME280;21790;42.668;23.298;2024-01-06T10:31:17;94172.09;;;15.59;40.15
35676;BME280;21790;42.668;23.298;2024-01-06T10:33:44;94179.69;;;15.53;40.27
35676;BME280;21790;42.668;23.298;2024-01-06T10:36:11;94171.34;;;15.59;40.25
35676;BME280;21790;42.668;23.298;2024-01-06T10:38:46;94168.03;;;15.71;40.21
35676;BME280;21790;42.668;23.298;2024-01-06T10:41:16;94165.22;;;15.71;40.37
35676;BME280;21790;42.668;23.298;2024-01-06T10:43:46;94157.13;;;15.79;40.11
35676;BME280;21790;42.668;23.298;2024-01-06T10:46:20;94154.34;;;15.79;40.10
35676;BME280;21790;42.668;23.298;2024-01-06T10:49:00;94151.28;;;15.82;40.13
35676;BME280;21790;42.668;23.298;2024-01-06T10:51:29;94148.28;;;15.75;40.34
35676;BME280;21790;42.668;23.298;2024-01-06T10:54:00;94146.50;;;15.72;40.08
35676;BME280;21790;42.668;23.298;2024-01-06T10:56:33;94143.19;;;15.79;40.21
35676;BME280;21790;42.668;23.298;2024-01-06T10:59:03;94145.72;;;15.77;40.34
35676;BME280;21790;42.668;23.298;2024-01-06T11:01:29;94132.81;;;15.74;40.06
35676;BME280;21790;42.668;23.298;2024-01-06T11:03:56;94137.91;;;15.81;40.08
35676;BME280;21790;42.668;23.298;2024-01-06T11:06:25;94125.22;;;15.80;39.73
35676;BME280;21790;42.668;23.298;2024-01-06T11:09:19;94116.56;;;16.00;38.83
35676;BME280;21790;42.668;23.298;2024-01-06T11:11:52;94122.94;;;15.84;39.31
35676;BME280;21790;42.668;23.298;2024-01-06T11:14:27;94120.94;;;15.68;38.90
35676;BME280;21790;42.668;23.298;2024-01-06T11:16:59;94114.59;;;15.78;38.77
35676;BME280;21790;42.668;23.298;2024-01-06T11:22:28;94107.19;;;16.03;38.24
35676;BME280;21790;42.668;23.298;2024-01-06T11:25:07;94089.47;;;15.95;37.80
35676;BME280;21790;42.668;23.298;2024-01-06T11:27:36;94081.81;;;16.12;37.90
35676;BME280;21790;42.668;23.298;2024-01-06T11:30:09;94107.38;;;16.16;37.95
35676;BME280;21790;42.668;23.298;2024-01-06T11:32:50;94073.09;;;16.38;37.15
35676;BME280;21790;42.668;23.298;2024-01-06T11:35:22;94092.28;;;16.53;37.24
35676;BME280;21790;42.668;23.298;2024-01-06T11:37:54;94093.13;;;16.31;37.59
35676;BME280;21790;42.668;23.298;2024-01-06T11:42:57;94046.63;;;16.56;36.41
35676;BME280;21790;42.668;23.298;2024-01-06T11:45:34;94050.09;;;16.73;36.41
35676;BME280;21790;42.668;23.298;2024-01-06T11:48:04;94042.75;;;16.70;36.50
35676;BME280;21790;42.668;23.298;2024-01-06T11:50:37;94046.81;;;16.75;36.51
35676;BME280;21790;42.668;23.298;2024-01-06T11:53:06;94029.56;;;16.70;36.31
35676;BME280;21790;42.668;23.298;2024-01-06T11:55:43;94025.09;;;16.92;36.04
35676;BME280;21790;42.668;23.298;2024-01-06T11:58:09;94024.66;;;16.82;36.45
35676;BME280;21790;42.668;23.298;2024-01-06T12:00:36;94026.09;;;16.94;36.22
35676;BME280;21790;42.668;23.298;2024-01-06T12:03:08;94011.31;;;17.05;35.92
35676;BME280;21790;42.668;23.298;2024-01-06T12:05:38;94011.19;;;16.86;35.88
35676;BME280;21790;42.668;23.298;2024-01-06T12:08:05;94007.44;;;16.78;36.17
35676;BME280;21790;42.668;23.298;2024-01-06T12:10:33;93997.09;;;16.73;36.47
35676;BME280;21790;42.668;23.298;2024-01-06T12:13:04;93991.97;;;16.77;36.14
35676;BME280;21790;42.668;23.298;2024-01-06T12:15:31;93989.44;;;16.79;36.46
35676;BME280;21790;42.668;23.298;2024-01-06T12:17:59;93983.91;;;16.73;36.69
35676;BME280;21790;42.668;23.298;2024-01-06T12:20:28;93983.03;;;16.49;37.43
35676;BME280;21790;42.668;23.298;2024-01-06T12:22:55;93995.16;;;16.57;37.37
35676;BME280;21790;42.668;23.298;2024-01-06T12:25:21;94003.09;;;16.47;37.42
35676;BME280;21790;42.668;23.298;2024-01-06T12:27:50;94004.03;;;16.55;37.28
35676;BME280;21790;42.668;23.298;2024-01-06T12:30:25;94005.56;;;16.56;37.06
35676;BME280;21790;42.668;23.298;2024-01-06T12:36:17;94004.28;;;16.63;37.06
35676;BME280;21790;42.668;23.298;2024-01-06T12:42:15;93986.91;;;16.40;37.44
35676;BME280;21790;42.668;23.298;2024-01-06T12:47:52;93993.69;;;14.96;40.55
35676;BME280;21790;42.668;23.298;2024-01-06T12:50:20;93970.84;;;15.53;39.46
35676;BME280;21790;42.668;23.298;2024-01-06T12:52:48;93981.91;;;15.75;39.41
35676;BME280;21790;42.668;23.298;2024-01-06T12:59:01;93975.91;;;16.12;38.79
35676;BME280;21790;42.668;23.298;2024-01-06T13:01:49;93985.16;;;16.31;38.44
35676;BME280;21790;42.668;23.298;2024-01-06T13:04:17;93976.81;;;16.26;38.32
35676;BME280;21790;42.668;23.298;2024-01-06T13:22:17;93948.94;;;16.97;36.64
35676;BME280;21790;42.668;23.298;2024-01-06T13:25:00;93937.75;;;17.27;36.13
35676;BME280;21790;42.668;23.298;2024-01-06T13:32:45;93940.91;;;17.66;35.95
35676;BME280;21790;42.668;23.298;2024-01-06T13:35:23;93945.59;;;17.77;35.77
35676;BME280;21790;42.668;23.298;2024-01-06T14:31:50;93921.78;;;17.46;38.59
35676;BME280;21790;42.668;23.298;2024-01-06T14:34:44;93918.03;;;17.43;37.55
35676;BME280;21790;42.668;23.298;2024-01-06T14:37:34;93886.44;;;16.81;37.93
35676;BME280;21790;42.668;23.298;2024-01-06T14:40:23;93915.56;;;17.10;37.99